createdAt,value
2018-09-30T00:03:50.365Z,2.20
2018-09-30T00:08:53.443Z,2.30
2018-09-30T00:13:56.512Z,2.50
2018-09-30T00:18:59.755Z,2.10
2018-09-30T00:24:08.594Z,2.53
2018-09-30T00:29:11.707Z,3.40
2018-09-30T00:34:20.367Z,2.30
2018-09-30T00:39:23.826Z,2.30
2018-09-30T00:44:26.935Z,2.23
2018-09-30T00:49:30.061Z,2.67
2018-09-30T00:54:33.140Z,2.70
2018-09-30T00:59:36.315Z,2.37
2018-09-30T01:04:39.444Z,2.20
2018-09-30T01:09:42.643Z,2.20
2018-09-30T01:14:45.705Z,2.10
2018-09-30T01:19:48.775Z,2.67
2018-09-30T01:24:51.818Z,2.33
2018-09-30T01:29:54.868Z,2.90
2018-09-30T01:34:57.928Z,2.00
2018-09-30T01:40:01.012Z,2.60
2018-09-30T01:45:04.160Z,2.40
2018-09-30T01:50:07.291Z,1.80
2018-09-30T01:55:10.358Z,1.93
2018-09-30T02:00:13.648Z,1.87
2018-09-30T02:05:17.321Z,2.40
2018-09-30T02:10:20.398Z,2.37
2018-09-30T02:15:23.467Z,2.97
2018-09-30T02:20:26.535Z,1.83
2018-09-30T02:25:29.619Z,2.70
2018-09-30T02:30:32.724Z,2.30
2018-09-30T02:35:35.779Z,2.00
2018-09-30T02:48:20.725Z,1.90
2018-09-30T02:53:23.833Z,2.37
2018-09-30T02:58:26.876Z,3.07
2018-09-30T03:03:29.955Z,2.60
2018-09-30T03:08:38.966Z,1.83
2018-09-30T03:13:42.394Z,2.03
2018-09-30T03:18:45.817Z,2.03
2018-09-30T03:23:49.270Z,1.77
2018-09-30T03:28:52.717Z,1.80
2018-09-30T03:33:56.142Z,2.13
2018-09-30T03:38:59.524Z,1.97
2018-09-30T03:44:02.902Z,1.80
2018-09-30T03:49:06.554Z,1.37
2018-09-30T03:54:09.957Z,1.77
2018-09-30T03:59:13.397Z,1.77
2018-09-30T04:04:16.724Z,1.63
2018-09-30T04:09:19.820Z,1.50
2018-09-30T04:14:22.916Z,1.40
2018-09-30T04:19:25.991Z,2.07
2018-09-30T04:24:29.080Z,1.60
2018-09-30T04:29:32.147Z,1.60
2018-09-30T04:34:35.283Z,1.60
2018-09-30T04:39:38.348Z,2.00
2018-09-30T04:44:41.420Z,1.50
2018-09-30T04:49:44.528Z,1.53
2018-09-30T04:54:47.607Z,1.70
2018-09-30T04:59:50.686Z,1.60
2018-09-30T05:04:54.190Z,1.80
2018-09-30T05:09:57.351Z,1.50
2018-09-30T05:15:00.757Z,1.40
2018-09-30T05:20:04.600Z,1.27
2018-09-30T05:25:07.787Z,2.03
2018-09-30T05:30:10.851Z,2.23
2018-09-30T05:35:13.939Z,1.67
2018-09-30T05:40:17.056Z,1.70
2018-09-30T05:45:21.386Z,1.87
2018-09-30T05:50:24.514Z,2.00
2018-09-30T05:55:27.631Z,2.30
2018-09-30T06:00:30.732Z,2.37
2018-09-30T06:05:33.897Z,1.70
2018-09-30T06:10:37.006Z,2.53
2018-09-30T06:15:40.089Z,1.83
2018-09-30T06:20:43.209Z,1.53
2018-09-30T06:25:46.366Z,2.50
2018-09-30T06:30:49.456Z,3.93
2018-09-30T06:35:52.567Z,2.23
2018-09-30T06:40:55.640Z,1.90
2018-09-30T06:45:58.793Z,2.20
2018-09-30T06:51:01.974Z,1.57
2018-09-30T06:56:05.087Z,2.30
2018-09-30T07:01:08.219Z,2.40
2018-09-30T07:06:11.540Z,1.80
2018-09-30T07:11:14.780Z,2.20
2018-09-30T07:16:17.891Z,2.03
2018-09-30T07:21:21.133Z,2.30
2018-09-30T07:26:24.267Z,2.20
2018-09-30T07:31:27.388Z,2.53
2018-09-30T07:36:30.492Z,1.60
2018-09-30T07:41:37.158Z,1.50
2018-09-30T07:46:40.309Z,1.73
2018-09-30T07:51:43.397Z,2.13
2018-09-30T07:56:46.541Z,1.87
2018-09-30T08:01:49.684Z,2.17
2018-09-30T08:06:52.808Z,2.07
2018-09-30T08:11:56.241Z,2.10
2018-09-30T08:16:59.321Z,1.50
2018-09-30T08:22:02.443Z,1.37
2018-09-30T08:27:05.651Z,1.80
2018-09-30T08:32:08.780Z,1.63
2018-09-30T08:37:22.156Z,1.80
2018-09-30T08:42:25.231Z,1.67
2018-09-30T08:47:28.403Z,1.50
2018-09-30T08:52:31.404Z,2.10
2018-09-30T08:57:34.452Z,1.40
2018-09-30T09:02:37.560Z,1.60
2018-09-30T09:07:40.644Z,1.90
2018-09-30T09:12:43.867Z,1.30
2018-09-30T09:17:46.943Z,2.07
2018-09-30T09:22:50.063Z,1.67
2018-09-30T09:27:53.128Z,1.80
2018-09-30T09:32:56.303Z,1.80
2018-09-30T09:37:59.427Z,1.80
2018-09-30T09:43:02.539Z,1.80
2018-09-30T09:48:06.032Z,1.50
2018-09-30T09:53:09.259Z,1.90
2018-09-30T09:58:12.427Z,1.63
2018-09-30T10:03:16.134Z,1.70
2018-09-30T10:08:19.342Z,1.63
2018-09-30T10:13:22.566Z,2.30
2018-09-30T10:18:25.716Z,1.87
2018-09-30T10:23:29.772Z,2.07
2018-09-30T10:28:32.898Z,1.63
2018-09-30T10:33:36.173Z,1.83
2018-09-30T10:38:39.332Z,1.90
2018-09-30T10:43:42.410Z,1.80
2018-09-30T10:48:45.527Z,2.30
2018-09-30T10:53:48.589Z,1.97
2018-09-30T10:58:51.774Z,2.23
2018-09-30T11:03:55.148Z,2.40
2018-09-30T11:08:58.269Z,1.67
2018-09-30T11:14:01.490Z,2.90
2018-09-30T11:19:04.764Z,2.80
2018-09-30T11:24:07.955Z,1.93
2018-09-30T11:29:11.057Z,1.90
2018-09-30T11:34:15.165Z,2.00
2018-09-30T11:44:59.733Z,2.37
2018-09-30T11:50:02.980Z,2.23
2018-09-30T11:55:06.320Z,2.33
2018-09-30T12:00:09.237Z,3.20
2018-09-30T12:05:12.348Z,1.97
2018-09-30T12:10:15.448Z,2.00
2018-09-30T12:15:18.564Z,2.27
2018-09-30T12:20:21.691Z,1.90
2018-09-30T12:25:24.839Z,2.60
2018-09-30T12:30:28.043Z,2.60
2018-09-30T12:35:31.345Z,2.17
2018-09-30T12:40:35.554Z,2.30
2018-09-30T12:45:38.656Z,2.40
2018-09-30T12:50:41.726Z,2.03
2018-09-30T12:55:44.828Z,2.33
2018-09-30T13:00:47.969Z,2.53
2018-09-30T13:05:51.231Z,2.63
2018-09-30T13:10:54.306Z,2.67
2018-09-30T13:15:57.412Z,2.50
2018-09-30T13:21:00.937Z,2.40
2018-09-30T13:26:04.052Z,2.33
2018-09-30T13:31:07.194Z,3.23
2018-09-30T13:36:10.364Z,3.30
2018-09-30T13:41:13.645Z,3.00
2018-09-30T13:46:16.744Z,3.00
2018-09-30T13:51:19.921Z,2.50
2018-09-30T13:56:22.947Z,2.53
2018-09-30T14:01:26.060Z,3.10
2018-09-30T14:06:29.160Z,3.50
2018-09-30T14:11:32.240Z,3.50
2018-09-30T14:16:35.362Z,2.80
2018-09-30T14:21:38.447Z,2.93
2018-09-30T14:26:41.543Z,3.57
2018-09-30T14:31:44.661Z,3.80
2018-09-30T14:36:47.752Z,3.13
2018-09-30T14:41:50.836Z,3.50
2018-09-30T14:46:53.924Z,3.03
2018-09-30T14:51:57.003Z,3.10
2018-09-30T14:57:00.101Z,2.80
2018-09-30T15:02:03.176Z,3.60
2018-09-30T15:07:06.294Z,3.37
2018-09-30T15:12:09.419Z,3.30
2018-09-30T15:17:12.523Z,2.90
2018-09-30T15:22:15.604Z,2.67
2018-09-30T15:27:18.667Z,3.00
2018-09-30T15:32:21.829Z,2.70
2018-09-30T15:37:25.163Z,2.77
2018-09-30T15:42:28.383Z,2.40
2018-09-30T15:47:31.454Z,4.50
2018-09-30T15:52:34.845Z,2.77
2018-09-30T15:57:37.944Z,2.90
2018-09-30T16:02:41.120Z,2.87
2018-09-30T16:07:44.242Z,3.20
2018-09-30T16:12:47.519Z,3.03
2018-09-30T16:17:50.663Z,3.30
2018-09-30T16:22:53.871Z,3.00
2018-09-30T16:27:57.007Z,3.67
2018-09-30T16:33:00.116Z,4.40
2018-09-30T16:38:03.336Z,5.80
2018-09-30T16:43:06.642Z,5.67
2018-09-30T16:48:09.966Z,3.70
2018-09-30T16:53:13.284Z,3.90
2018-09-30T16:58:16.395Z,3.57
2018-09-30T17:03:19.540Z,3.43
2018-09-30T17:08:22.655Z,4.63
2018-09-30T17:13:25.784Z,5.37
2018-09-30T17:18:28.997Z,4.20
2018-09-30T17:23:32.205Z,4.90
2018-09-30T17:28:35.705Z,4.13
2018-09-30T17:33:38.829Z,3.80
2018-09-30T17:38:41.949Z,4.40
2018-09-30T17:43:45.131Z,4.67
2018-09-30T17:48:48.762Z,5.13
2018-09-30T17:53:52.163Z,5.57
2018-09-30T17:58:56.716Z,4.33
2018-09-30T18:04:00.421Z,4.70
2018-09-30T18:09:07.061Z,5.27
2018-09-30T18:14:10.987Z,5.10
2018-09-30T18:24:59.937Z,4.30
2018-09-30T18:30:03.472Z,4.10
2018-09-30T18:35:06.850Z,4.20
2018-09-30T18:40:11.151Z,4.93
2018-09-30T18:45:14.713Z,4.17
2018-09-30T18:50:17.893Z,16.63
2018-09-30T18:55:21.020Z,5.30
2018-09-30T19:00:24.277Z,5.13
2018-09-30T19:05:27.744Z,5.23
2018-09-30T19:10:30.891Z,5.90
2018-09-30T19:15:34.027Z,5.40
2018-09-30T19:20:37.294Z,5.40
2018-09-30T19:25:40.471Z,5.00
2018-09-30T19:30:43.756Z,5.60
2018-09-30T19:35:46.913Z,6.20
2018-09-30T19:40:50.091Z,5.40
2018-09-30T19:45:53.222Z,5.47
2018-09-30T19:50:56.322Z,5.10
2018-09-30T19:55:59.388Z,5.20
2018-09-30T20:01:02.569Z,6.53
2018-09-30T20:06:05.699Z,4.30
2018-09-30T20:11:08.771Z,5.70
2018-09-30T20:16:11.941Z,4.63
2018-09-30T20:21:15.128Z,5.50
2018-09-30T20:26:18.416Z,4.80
2018-09-30T20:31:21.533Z,4.70
2018-09-30T20:36:24.627Z,5.50
2018-09-30T20:41:28.910Z,4.60
2018-09-30T20:46:32.104Z,5.83
2018-09-30T20:51:35.643Z,4.63
2018-09-30T20:56:38.800Z,4.80
2018-09-30T21:01:41.923Z,5.63
2018-09-30T21:06:45.429Z,5.07
2018-09-30T21:11:48.639Z,4.10
2018-09-30T21:16:51.736Z,5.73
2018-09-30T21:21:54.794Z,5.57
2018-09-30T21:26:57.926Z,5.33
2018-09-30T21:32:01.166Z,7.77
2018-09-30T21:37:04.486Z,6.37
2018-09-30T21:42:07.624Z,4.67
2018-09-30T21:47:11.739Z,4.90
2018-09-30T21:52:14.831Z,5.50
2018-09-30T21:57:17.976Z,6.03
2018-09-30T22:02:21.147Z,5.23
2018-09-30T22:07:24.302Z,5.00
2018-09-30T22:12:27.407Z,6.33
2018-09-30T22:17:30.601Z,6.70
2018-09-30T22:22:33.707Z,5.53
2018-09-30T22:27:36.840Z,6.90
2018-09-30T22:32:39.933Z,6.67
2018-09-30T22:37:43.075Z,7.50
2018-09-30T22:42:46.159Z,7.37
2018-09-30T22:47:49.239Z,6.63
2018-09-30T22:52:52.304Z,7.93
2018-09-30T22:57:55.437Z,6.60
2018-09-30T23:02:58.631Z,7.40
2018-09-30T23:08:01.815Z,8.00
2018-09-30T23:13:05.174Z,7.10
2018-09-30T23:18:08.384Z,7.43
2018-09-30T23:23:11.530Z,7.90
2018-09-30T23:28:14.655Z,8.13
2018-09-30T23:33:17.823Z,7.53
2018-09-30T23:38:20.923Z,6.80
2018-09-30T23:43:24.028Z,7.50
2018-09-30T23:48:27.158Z,8.20
2018-09-30T23:53:30.267Z,8.27
2018-09-30T23:58:33.402Z,7.70
